createdAt,value
2022-11-08T00:01:02.573Z,91.44
2022-11-08T00:03:24.524Z,91.18
2022-11-08T00:06:04.598Z,91.22
2022-11-08T00:08:44.808Z,91.51
2022-11-08T00:11:24.687Z,92.44
2022-11-08T00:13:58.709Z,91.15
2022-11-08T00:16:20.175Z,90.75
2022-11-08T00:18:41.660Z,90.53
2022-11-08T00:21:03.520Z,90.23
2022-11-08T00:23:24.977Z,89.52
2022-11-08T00:25:53.553Z,89.37
2022-11-08T00:28:15.291Z,89.24
2022-11-08T00:30:36.923Z,88.49
2022-11-08T00:32:58.440Z,89.04
2022-11-08T00:35:19.901Z,88.89
2022-11-08T00:37:41.410Z,89.21
2022-11-08T00:40:02.889Z,89.86
2022-11-08T00:42:24.392Z,89.18
2022-11-08T00:44:45.869Z,89.12
2022-11-08T00:47:07.474Z,88.62
2022-11-08T00:49:28.916Z,88.75
2022-11-08T00:51:50.378Z,89.22
2022-11-08T00:54:17.364Z,89.33
2022-11-08T00:56:38.937Z,88.79
2022-11-08T00:59:00.802Z,87.90
2022-11-08T01:01:22.455Z,87.92
2022-11-08T01:03:44.083Z,87.87
2022-11-08T01:06:08.740Z,87.74
2022-11-08T01:08:30.209Z,86.86
2022-11-08T01:10:52.901Z,87.63
2022-11-08T01:13:15.427Z,88.07
2022-11-08T01:15:38.718Z,87.78
2022-11-08T01:18:15.175Z,88.19
2022-11-08T01:20:44.673Z,88.11
2022-11-08T01:23:06.309Z,87.90
2022-11-08T01:25:27.798Z,88.17
2022-11-08T01:27:49.246Z,87.78
2022-11-08T01:30:11.156Z,88.19
2022-11-08T01:32:33.498Z,88.50
2022-11-08T01:34:54.925Z,89.19
2022-11-08T01:37:16.390Z,90.23
2022-11-08T01:39:37.818Z,90.26
2022-11-08T01:41:59.265Z,89.37
2022-11-08T01:44:21.740Z,89.49
2022-11-08T01:46:46.735Z,88.29
2022-11-08T01:49:30.070Z,88.76
2022-11-08T01:51:54.753Z,88.37
2022-11-08T01:54:31.906Z,88.41
2022-11-08T01:56:54.493Z,88.09
2022-11-08T01:59:18.456Z,87.55
2022-11-08T02:01:40.205Z,88.10
2022-11-08T02:04:03.339Z,88.05
2022-11-08T02:06:25.482Z,88.22
2022-11-08T02:08:47.324Z,88.18
2022-11-08T02:11:11.536Z,89.09
2022-11-08T02:13:35.313Z,89.69
2022-11-08T02:15:56.837Z,89.88
2022-11-08T02:18:20.312Z,89.52
2022-11-08T02:20:53.541Z,89.04
2022-11-08T02:23:21.781Z,88.40
2022-11-08T02:25:43.262Z,88.61
2022-11-08T02:28:05.004Z,88.73
2022-11-08T02:30:32.803Z,88.55
2022-11-08T02:32:54.251Z,89.42
2022-11-08T02:35:19.861Z,90.68
2022-11-08T02:37:41.496Z,92.38
2022-11-08T02:40:03.920Z,92.39
2022-11-08T02:42:25.421Z,91.53
2022-11-08T02:44:47.531Z,90.66
2022-11-08T02:47:09.098Z,93.06
2022-11-08T02:49:30.555Z,92.41
2022-11-08T02:51:53.864Z,92.34
2022-11-08T02:54:15.315Z,91.76
2022-11-08T02:56:36.811Z,91.68
2022-11-08T02:58:58.237Z,91.69
2022-11-08T03:01:19.807Z,91.49
2022-11-08T03:03:41.251Z,92.03
2022-11-08T03:06:02.704Z,92.63
2022-11-08T03:08:24.162Z,92.10
2022-11-08T03:10:45.651Z,91.07
2022-11-08T03:13:07.225Z,91.69
2022-11-08T03:15:29.308Z,90.35
2022-11-08T03:17:51.202Z,90.84
2022-11-08T03:20:12.742Z,91.20
2022-11-08T03:22:34.173Z,90.12
2022-11-08T03:24:55.603Z,89.39
2022-11-08T03:27:19.182Z,89.88
2022-11-08T03:29:41.485Z,89.87
2022-11-08T03:32:03.263Z,89.86
2022-11-08T03:34:24.711Z,89.15
2022-11-08T03:36:46.179Z,90.53
2022-11-08T03:39:07.717Z,91.33
2022-11-08T03:41:29.175Z,91.45
2022-11-08T03:43:50.659Z,93.92
2022-11-08T03:46:12.561Z,92.87
2022-11-08T03:48:33.997Z,92.59
2022-11-08T03:50:55.437Z,92.50
2022-11-08T03:53:16.858Z,91.52
2022-11-08T03:55:38.335Z,91.51
2022-11-08T03:57:59.871Z,91.76
2022-11-08T04:00:24.755Z,92.33
2022-11-08T04:02:46.220Z,93.20
2022-11-08T04:05:10.172Z,93.93
2022-11-08T04:07:31.728Z,93.11
2022-11-08T04:09:53.166Z,93.09
2022-11-08T04:12:33.448Z,93.92
2022-11-08T04:15:13.295Z,94.41
2022-11-08T04:17:53.110Z,93.89
2022-11-08T04:20:37.777Z,93.52
2022-11-08T04:22:59.220Z,94.02
2022-11-08T04:25:20.705Z,93.29
2022-11-08T04:27:42.152Z,93.43
2022-11-08T04:30:03.968Z,92.93
2022-11-08T04:32:26.089Z,95.48
2022-11-08T04:34:47.513Z,96.32
2022-11-08T04:37:08.973Z,93.13
2022-11-08T04:39:30.463Z,91.78
2022-11-08T04:41:51.923Z,91.07
2022-11-08T04:44:15.540Z,91.17
2022-11-08T04:46:37.006Z,91.27
2022-11-08T04:48:59.928Z,93.64
2022-11-08T04:51:26.980Z,93.04
2022-11-08T04:53:49.350Z,91.91
2022-11-08T04:56:13.459Z,91.31
2022-11-08T04:58:37.380Z,91.98
2022-11-08T05:01:03.020Z,91.72
2022-11-08T05:03:24.543Z,92.36
2022-11-08T05:05:45.990Z,92.34
2022-11-08T05:08:07.471Z,92.27
2022-11-08T05:10:28.938Z,93.40
2022-11-08T05:12:55.654Z,94.29
2022-11-08T05:15:17.223Z,93.91
2022-11-08T05:17:38.943Z,94.18
2022-11-08T05:20:19.081Z,97.76
2022-11-08T05:22:58.913Z,94.88
2022-11-08T05:25:20.420Z,93.11
2022-11-08T05:27:41.842Z,93.09
2022-11-08T05:30:04.099Z,92.39
2022-11-08T05:32:25.566Z,93.31
2022-11-08T05:34:47.044Z,95.06
2022-11-08T05:37:08.541Z,94.13
2022-11-08T05:39:32.266Z,94.19
2022-11-08T05:41:53.932Z,94.21
2022-11-08T05:44:15.408Z,95.27
2022-11-08T05:46:36.922Z,94.73
2022-11-08T05:48:58.376Z,93.92
2022-11-08T05:51:20.562Z,93.20
2022-11-08T05:53:42.035Z,93.25
2022-11-08T05:56:04.159Z,94.55
2022-11-08T05:58:26.682Z,93.86
2022-11-08T06:00:48.173Z,93.24
2022-11-08T06:03:09.729Z,93.09
2022-11-08T06:05:32.375Z,93.05
2022-11-08T06:07:54.360Z,92.58
2022-11-08T06:10:15.917Z,92.60
2022-11-08T06:12:38.252Z,92.96
2022-11-08T06:14:59.807Z,92.81
2022-11-08T06:17:24.774Z,93.26
2022-11-08T06:19:49.092Z,93.94
2022-11-08T06:22:10.776Z,93.41
2022-11-08T06:24:32.266Z,93.62
2022-11-08T06:26:53.761Z,93.16
2022-11-08T06:29:15.236Z,93.33
2022-11-08T06:31:41.871Z,94.25
2022-11-08T06:34:04.441Z,94.08
2022-11-08T06:36:25.884Z,96.93
2022-11-08T06:38:47.367Z,97.27
2022-11-08T06:41:18.605Z,97.96
2022-11-08T06:43:40.045Z,96.69
2022-11-08T06:46:02.571Z,97.29
2022-11-08T06:48:24.072Z,95.92
2022-11-08T06:50:45.594Z,95.81
2022-11-08T06:53:10.532Z,95.40
2022-11-08T06:55:33.804Z,94.49
2022-11-08T06:57:55.485Z,94.00
2022-11-08T07:00:17.238Z,93.88
2022-11-08T07:02:38.798Z,93.97
2022-11-08T07:05:00.350Z,94.01
2022-11-08T07:07:21.841Z,93.75
2022-11-08T07:09:43.846Z,93.72
2022-11-08T07:12:05.440Z,94.66
2022-11-08T07:14:26.914Z,94.19
2022-11-08T07:16:48.990Z,94.29
2022-11-08T07:19:10.475Z,94.78
2022-11-08T07:21:31.907Z,94.88
2022-11-08T07:23:53.413Z,92.92
2022-11-08T07:26:15.493Z,93.42
2022-11-08T07:28:37.058Z,93.96
2022-11-08T07:31:01.090Z,94.09
2022-11-08T07:33:22.827Z,93.51
2022-11-08T07:35:47.212Z,93.06
2022-11-08T07:38:08.686Z,94.04
2022-11-08T07:40:30.579Z,93.14
2022-11-08T07:45:33.889Z,93.00
2022-11-08T07:48:09.520Z,93.78
2022-11-08T07:50:33.285Z,92.92
2022-11-08T07:52:55.039Z,92.93
2022-11-08T07:55:16.606Z,93.00
2022-11-08T07:57:38.034Z,92.90
2022-11-08T08:00:03.534Z,93.73
2022-11-08T08:02:27.882Z,93.24
2022-11-08T08:04:49.362Z,93.38
2022-11-08T08:07:12.410Z,94.12
2022-11-08T08:09:36.998Z,94.10
2022-11-08T08:11:58.615Z,92.87
2022-11-08T08:14:20.132Z,92.12
2022-11-08T08:16:41.609Z,92.17
2022-11-08T08:19:03.709Z,93.19
2022-11-08T08:21:25.264Z,92.92
2022-11-08T08:23:46.734Z,92.19
2022-11-08T08:26:08.297Z,91.91
2022-11-08T08:28:29.768Z,91.87
2022-11-08T08:30:51.222Z,91.59
2022-11-08T08:33:27.843Z,90.20
2022-11-08T08:35:53.006Z,91.12
2022-11-08T08:38:14.833Z,89.27
2022-11-08T08:40:36.565Z,89.42
2022-11-08T08:42:59.221Z,88.93
2022-11-08T08:45:20.726Z,88.42
2022-11-08T08:47:42.206Z,89.92
2022-11-08T08:50:03.894Z,90.52
2022-11-08T08:52:25.328Z,90.18
2022-11-08T08:54:46.805Z,90.45
2022-11-08T08:57:08.304Z,90.28
2022-11-08T09:02:11.934Z,90.67
2022-11-08T09:04:33.431Z,89.92
2022-11-08T09:06:55.127Z,90.39
2022-11-08T09:09:16.611Z,89.59
2022-11-08T09:11:38.103Z,90.60
2022-11-08T09:13:59.576Z,90.84
2022-11-08T09:16:21.037Z,91.12
2022-11-08T09:18:42.721Z,89.93
2022-11-08T09:21:04.440Z,89.36
2022-11-08T09:23:26.091Z,89.01
2022-11-08T09:25:47.567Z,88.71
2022-11-08T09:28:10.021Z,87.34
2022-11-08T09:30:31.767Z,87.07
2022-11-08T09:33:01.185Z,86.19
2022-11-08T09:35:24.388Z,85.47
2022-11-08T09:37:49.603Z,84.20
2022-11-08T09:40:21.803Z,82.20
2022-11-08T09:42:52.921Z,79.56
2022-11-08T09:45:26.828Z,79.44
2022-11-08T09:47:54.549Z,79.41
2022-11-08T09:50:34.176Z,79.14
2022-11-08T09:53:18.904Z,79.45
2022-11-08T09:55:50.068Z,78.91
2022-11-08T09:58:17.324Z,78.40
2022-11-08T10:00:40.627Z,76.91
2022-11-08T10:03:03.048Z,77.69
2022-11-08T10:05:28.156Z,78.04
2022-11-08T10:07:53.490Z,78.99
2022-11-08T10:10:17.954Z,78.51
2022-11-08T10:12:47.463Z,78.66
2022-11-08T10:15:25.125Z,79.04
2022-11-08T10:18:27.269Z,78.75
2022-11-08T10:21:02.981Z,79.26
2022-11-08T10:23:27.454Z,79.09
2022-11-08T10:25:50.686Z,79.03
2022-11-08T10:28:18.176Z,79.26
2022-11-08T10:30:42.592Z,79.48
2022-11-08T10:33:18.187Z,78.91
2022-11-08T10:36:21.356Z,79.23
2022-11-08T10:38:54.156Z,78.21
2022-11-08T10:41:39.450Z,76.70
2022-11-08T10:44:11.649Z,77.32
2022-11-08T10:46:55.609Z,77.24
2022-11-08T10:49:26.467Z,77.45
2022-11-08T10:51:51.793Z,78.01
2022-11-08T10:54:41.647Z,76.36
2022-11-08T10:57:03.159Z,75.05
2022-11-08T10:59:32.014Z,74.55
2022-11-08T11:01:53.617Z,73.72
2022-11-08T11:04:27.751Z,75.33
2022-11-08T11:06:49.366Z,75.24
2022-11-08T11:09:21.945Z,74.27
2022-11-08T11:11:43.543Z,74.02
2022-11-08T11:14:18.307Z,75.33
2022-11-08T11:16:56.365Z,75.35
2022-11-08T11:19:17.901Z,74.09
2022-11-08T11:21:40.126Z,75.23
2022-11-08T11:24:19.384Z,75.44
2022-11-08T11:26:59.281Z,74.45
2022-11-08T11:29:26.472Z,74.89
2022-11-08T11:31:50.798Z,74.87
2022-11-08T11:34:21.194Z,75.20
2022-11-08T11:36:45.651Z,73.93
2022-11-08T11:39:15.641Z,75.88
2022-11-08T11:41:44.351Z,72.84
2022-11-08T11:44:18.897Z,72.75
2022-11-08T11:47:09.302Z,72.05
2022-11-08T11:49:31.450Z,72.81
2022-11-08T11:51:55.030Z,72.90
2022-11-08T11:54:16.661Z,73.29
2022-11-08T11:56:43.798Z,72.78
2022-11-08T11:59:08.713Z,73.16
2022-11-08T12:02:18.317Z,73.92
2022-11-08T12:04:51.292Z,74.46
2022-11-08T12:07:30.561Z,75.30
2022-11-08T12:10:04.046Z,73.99
2022-11-08T12:12:44.102Z,73.72
2022-11-08T12:15:35.176Z,72.59
2022-11-08T12:18:02.700Z,71.54
2022-11-08T12:20:50.574Z,71.42
2022-11-08T12:23:56.925Z,68.07
2022-11-08T12:26:44.104Z,67.69
2022-11-08T12:29:17.308Z,68.73
2022-11-08T12:32:12.373Z,68.37
2022-11-08T12:35:07.849Z,66.38
2022-11-08T12:37:45.193Z,67.34
2022-11-08T12:40:15.658Z,66.25
2022-11-08T12:42:59.912Z,66.10
2022-11-08T12:45:39.730Z,66.13
2022-11-08T12:48:17.989Z,65.51
2022-11-08T12:50:50.382Z,64.12
2022-11-08T12:53:34.720Z,64.06
2022-11-08T12:55:57.902Z,64.44
2022-11-08T12:58:41.566Z,65.32
2022-11-08T13:01:11.610Z,64.51
2022-11-08T13:03:45.887Z,65.89
2022-11-08T13:06:14.993Z,65.28
2022-11-08T13:08:59.609Z,65.71
2022-11-08T13:11:29.072Z,64.53
2022-11-08T13:13:50.473Z,65.50
2022-11-08T13:16:18.144Z,64.56
2022-11-08T13:18:57.766Z,63.73
2022-11-08T13:21:40.401Z,63.71
2022-11-08T13:24:06.671Z,62.94
2022-11-08T13:26:41.928Z,61.67
2022-11-08T13:29:18.730Z,61.88
2022-11-08T13:31:58.232Z,61.77
2022-11-08T13:34:26.393Z,60.76
2022-11-08T13:36:53.753Z,61.13
2022-11-08T13:39:23.116Z,59.91
2022-11-08T13:42:27.632Z,59.99
2022-11-08T13:44:56.751Z,59.88
2022-11-08T13:47:33.522Z,59.02
2022-11-08T13:50:33.857Z,58.92
2022-11-08T13:53:11.803Z,59.51
2022-11-08T13:55:42.111Z,60.33
2022-11-08T13:58:03.615Z,60.34
2022-11-08T14:00:43.579Z,59.01
2022-11-08T14:03:33.702Z,57.63
2022-11-08T14:05:57.099Z,58.14
2022-11-08T14:08:20.946Z,58.85
2022-11-08T14:11:05.620Z,59.12
2022-11-08T14:14:01.478Z,58.98
2022-11-08T14:16:30.825Z,58.86
2022-11-08T14:18:52.337Z,60.17
2022-11-08T14:21:19.444Z,60.07
2022-11-08T14:23:42.323Z,60.12
2022-11-08T14:26:21.441Z,59.76
2022-11-08T14:28:45.206Z,59.69
2022-11-08T14:31:23.008Z,60.91
2022-11-08T14:33:44.570Z,60.12
2022-11-08T14:36:08.519Z,60.82
2022-11-08T14:38:33.347Z,61.48
2022-11-08T14:41:03.478Z,61.54
2022-11-08T14:43:25.890Z,61.47
2022-11-08T14:45:47.858Z,61.63
2022-11-08T14:48:29.837Z,61.40
2022-11-08T14:51:01.563Z,62.37
2022-11-08T14:53:27.231Z,62.32
2022-11-08T14:56:03.235Z,62.67
2022-11-08T14:58:28.000Z,62.74
2022-11-08T15:00:49.762Z,62.51
2022-11-08T15:03:17.400Z,61.76
2022-11-08T15:05:42.399Z,61.46
2022-11-08T15:08:06.744Z,61.30
2022-11-08T15:10:28.961Z,61.49
2022-11-08T15:12:50.911Z,61.78
2022-11-08T15:15:23.904Z,62.45
2022-11-08T15:17:46.893Z,62.89
2022-11-08T15:20:11.167Z,62.91
2022-11-08T15:22:35.188Z,62.84
2022-11-08T15:25:00.394Z,62.73
2022-11-08T15:27:24.253Z,62.87
2022-11-08T15:29:53.211Z,62.43
2022-11-08T15:32:17.933Z,62.74
2022-11-08T15:34:41.557Z,63.32
2022-11-08T15:37:03.130Z,64.14
2022-11-08T15:39:34.033Z,64.60
2022-11-08T15:42:01.497Z,63.58
2022-11-08T15:44:25.501Z,63.93
2022-11-08T15:46:46.973Z,63.38
2022-11-08T15:49:23.366Z,64.22
2022-11-08T15:51:45.318Z,64.86
2022-11-08T15:54:10.101Z,64.48
2022-11-08T15:56:31.585Z,65.89
2022-11-08T15:58:53.070Z,66.27
2022-11-08T16:06:29.969Z,65.37
2022-11-08T16:08:51.377Z,67.36
2022-11-08T16:11:23.500Z,67.49
2022-11-08T16:13:45.055Z,67.94
2022-11-08T16:16:17.864Z,67.63
2022-11-08T16:18:40.518Z,67.79
2022-11-08T16:21:02.081Z,67.78
2022-11-08T16:23:23.575Z,68.26
2022-11-08T16:25:54.780Z,69.53
2022-11-08T16:28:22.238Z,70.44
2022-11-08T16:30:46.812Z,70.05
2022-11-08T16:33:35.551Z,69.56
2022-11-08T16:35:59.285Z,69.98
2022-11-08T16:38:33.556Z,70.18
2022-11-08T16:40:55.416Z,69.63
2022-11-08T16:43:17.088Z,70.56
2022-11-08T16:46:03.794Z,70.28
2022-11-08T16:48:26.604Z,69.89
2022-11-08T16:50:48.627Z,70.97
2022-11-08T16:53:20.087Z,70.45
2022-11-08T16:55:41.539Z,70.98
2022-11-08T16:58:03.005Z,70.95
2022-11-08T17:00:24.521Z,70.78
2022-11-08T17:02:51.547Z,71.54
2022-11-08T17:05:22.037Z,71.47
2022-11-08T17:07:43.883Z,72.08
2022-11-08T17:10:05.864Z,71.76
2022-11-08T17:12:27.322Z,71.92
2022-11-08T17:14:48.893Z,71.47
2022-11-08T17:17:15.006Z,71.57
2022-11-08T17:19:36.490Z,73.64
2022-11-08T17:21:57.999Z,74.23
2022-11-08T17:24:21.949Z,73.70
2022-11-08T17:26:43.673Z,74.15
2022-11-08T17:29:06.618Z,73.60
2022-11-08T17:31:28.107Z,72.33
2022-11-08T17:33:49.644Z,73.11
2022-11-08T17:36:13.242Z,72.70
2022-11-08T17:38:36.007Z,74.16
2022-11-08T17:41:05.608Z,72.87
2022-11-08T17:43:27.143Z,72.88
2022-11-08T17:45:50.259Z,72.76
2022-11-08T17:48:11.762Z,72.22
2022-11-08T17:50:33.239Z,72.67
2022-11-08T17:52:54.835Z,72.57
2022-11-08T17:55:16.381Z,72.31
2022-11-08T17:57:38.053Z,72.41
2022-11-08T17:59:59.727Z,73.37
2022-11-08T18:02:21.311Z,72.79
2022-11-08T18:04:42.926Z,73.42
2022-11-08T18:07:04.612Z,74.40
2022-11-08T18:09:26.686Z,73.92
2022-11-08T18:11:48.283Z,74.78
2022-11-08T18:14:09.787Z,74.68
2022-11-08T18:16:31.951Z,74.36
2022-11-08T18:18:53.566Z,74.56
2022-11-08T18:21:16.180Z,73.50
2022-11-08T18:23:43.029Z,74.89
2022-11-08T18:26:05.122Z,74.35
2022-11-08T18:28:27.114Z,74.33
2022-11-08T18:30:49.609Z,75.44
2022-11-08T18:33:11.178Z,74.62
2022-11-08T18:35:35.949Z,75.79
2022-11-08T18:37:57.479Z,75.58
2022-11-08T18:40:19.045Z,76.35
2022-11-08T18:42:40.545Z,76.98
2022-11-08T18:45:02.104Z,77.63
2022-11-08T18:47:23.589Z,77.69
2022-11-08T18:49:45.170Z,77.53
2022-11-08T18:52:06.646Z,77.91
2022-11-08T18:54:28.162Z,78.71
2022-11-08T18:56:49.670Z,78.89
2022-11-08T18:59:11.109Z,78.83
2022-11-08T19:01:32.596Z,78.40
2022-11-08T19:03:54.139Z,79.02
2022-11-08T19:06:15.626Z,79.26
2022-11-08T19:08:37.391Z,79.20
2022-11-08T19:11:11.544Z,79.24
2022-11-08T19:13:34.194Z,79.68
2022-11-08T19:16:00.977Z,79.75
2022-11-08T19:18:22.639Z,79.59
2022-11-08T19:20:44.113Z,78.69
2022-11-08T19:23:05.591Z,78.65
2022-11-08T19:25:27.067Z,78.55
2022-11-08T19:27:48.537Z,78.19
2022-11-08T19:30:10.390Z,78.80
2022-11-08T19:32:31.986Z,78.47
2022-11-08T19:34:53.447Z,78.33
2022-11-08T19:37:15.010Z,78.09
2022-11-08T19:39:36.563Z,76.10
2022-11-08T19:41:58.072Z,76.05
2022-11-08T19:44:19.734Z,76.83
2022-11-08T19:46:41.757Z,76.72
2022-11-08T19:49:04.027Z,77.16
2022-11-08T19:51:29.507Z,78.37
2022-11-08T19:53:58.912Z,78.45
2022-11-08T19:56:29.196Z,77.93
2022-11-08T19:58:59.998Z,77.96
2022-11-08T20:01:24.121Z,77.95
2022-11-08T20:03:46.355Z,78.13
2022-11-08T20:06:08.704Z,78.61
2022-11-08T20:08:31.410Z,78.49
2022-11-08T20:10:52.966Z,78.97
2022-11-08T20:13:14.455Z,79.18
2022-11-08T20:15:35.957Z,79.48
2022-11-08T20:17:57.433Z,79.20
2022-11-08T20:20:19.623Z,77.64
2022-11-08T20:22:41.231Z,78.60
2022-11-08T20:25:03.791Z,78.47
2022-11-08T20:27:25.280Z,77.58
2022-11-08T20:29:46.819Z,78.49
2022-11-08T20:32:08.486Z,78.29
2022-11-08T20:34:29.963Z,78.30
2022-11-08T20:36:51.503Z,77.52
2022-11-08T20:39:14.650Z,76.96
2022-11-08T20:41:37.714Z,77.64
2022-11-08T20:44:00.403Z,77.15
2022-11-08T20:46:22.962Z,77.26
2022-11-08T20:48:50.633Z,77.86
2022-11-08T20:51:14.419Z,77.63
2022-11-08T20:53:36.988Z,77.25
2022-11-08T20:56:10.075Z,75.76
2022-11-08T20:58:33.591Z,77.35
2022-11-08T21:00:59.203Z,76.79
2022-11-08T21:03:21.851Z,76.71
2022-11-08T21:06:03.703Z,78.01
2022-11-08T21:08:58.621Z,78.91
2022-11-08T21:11:10.343Z,78.11
2022-11-08T21:13:34.812Z,77.65
2022-11-08T21:16:13.852Z,78.42
2022-11-08T21:18:39.708Z,78.26
2022-11-08T21:21:04.986Z,77.96
2022-11-08T21:23:26.682Z,78.92
2022-11-08T21:25:51.050Z,79.26
2022-11-08T21:28:12.494Z,79.08
2022-11-08T21:30:34.092Z,78.89
2022-11-08T21:32:55.667Z,78.78
2022-11-08T21:35:17.246Z,80.02
2022-11-08T21:37:38.690Z,79.91
2022-11-08T21:40:00.157Z,80.13
2022-11-08T21:42:21.595Z,78.91
2022-11-08T21:44:43.048Z,78.77
2022-11-08T21:47:04.538Z,78.39
2022-11-08T21:49:26.036Z,78.60
2022-11-08T21:51:47.542Z,78.44
2022-11-08T21:54:09.063Z,78.60
2022-11-08T21:56:33.515Z,78.13
2022-11-08T21:58:54.960Z,78.84
2022-11-08T22:01:16.964Z,78.60
2022-11-08T22:03:38.526Z,79.07
2022-11-08T22:06:00.202Z,79.07
2022-11-08T22:08:21.655Z,78.40
2022-11-08T22:10:45.513Z,78.15
2022-11-08T22:13:06.962Z,77.24
2022-11-08T22:15:28.523Z,77.38
2022-11-08T22:18:14.247Z,77.83
2022-11-08T22:20:31.407Z,77.90
2022-11-08T22:22:52.846Z,78.58
2022-11-08T22:25:14.311Z,78.88
2022-11-08T22:27:35.801Z,78.17
2022-11-08T22:29:57.284Z,78.23
2022-11-08T22:32:18.731Z,79.13
2022-11-08T22:34:40.221Z,78.82
2022-11-08T22:37:01.736Z,79.04
2022-11-08T22:39:23.758Z,78.72
2022-11-08T22:41:46.647Z,78.83
2022-11-08T22:44:11.727Z,78.65
2022-11-08T22:46:33.984Z,78.65
2022-11-08T22:48:55.443Z,78.02
2022-11-08T22:51:17.109Z,77.97
2022-11-08T22:53:38.942Z,76.73
2022-11-08T22:56:08.256Z,76.69
2022-11-08T22:58:32.007Z,76.61
2022-11-08T23:00:53.543Z,76.05
2022-11-08T23:03:15.119Z,76.48
2022-11-08T23:05:36.780Z,76.71
2022-11-08T23:07:58.232Z,76.72
2022-11-08T23:10:19.715Z,77.26
2022-11-08T23:12:59.569Z,76.84
2022-11-08T23:15:53.412Z,77.27
2022-11-08T23:18:14.900Z,76.68
2022-11-08T23:20:54.787Z,76.89
2022-11-08T23:23:34.910Z,76.99
2022-11-08T23:25:56.747Z,77.17
2022-11-08T23:28:36.843Z,77.31
2022-11-08T23:31:34.877Z,77.45
2022-11-08T23:33:56.360Z,77.93
2022-11-08T23:36:17.815Z,77.74
2022-11-08T23:38:39.289Z,78.76
2022-11-08T23:41:19.032Z,79.01
2022-11-08T23:44:06.439Z,77.51
2022-11-08T23:46:27.902Z,78.38
2022-11-08T23:48:49.384Z,78.35
2022-11-08T23:51:10.835Z,79.41
2022-11-08T23:53:33.921Z,78.58
2022-11-08T23:55:55.849Z,78.40
2022-11-08T23:58:18.018Z,78.89
